Flugplatz Bergneustadt/Auf dem Dümpel

Für EDKF sind keine METAR/TAF Berichte vorhanden.
Es werden die Flugwettermeldungen vom Flugplatz Cologne Bonn in 44 km Entfernung angezeigt.

Bericht für EDDK

vom 25.10. um 17:20 UTC

Wind 6 kt aus 250°

Sichtweite 10 km oder mehr

schwacher Regen

gering bewölkt in 3000 ft

aufgebrochene Bewölkung in 3900 ft

Temperatur 12.0°C

Taupunkt 10.0°C

Luftfeuchtigkeit 88%

Luftdruck 1018 hPa

keine wesentliche Wetteränderung innerhalb den nächsten 2 Stunden zu erwarten

EDDK 251720Z 25006KT 230V300 9999 -RA FEW030 BKN039 12/10 Q1018 RERA NOSIG

Prognose für EDDK

vom 25.10. um 17:00 UTC

Zwischen 18:00 UTC und 00:00 UTC

Wind 7 kt aus 240°

Sichtweite 10 km oder mehr

aufgebrochene Bewölkung in 3000 ft


Zwischen 18:00 und 21:00 UTC übergehend zu

Wind 5 kt aus 170°

Sichtweite 10 km oder mehr

aufgebrochene Bewölkung in 3000 ft


Am 26.10. zwischen 07:00 und 10:00 UTC übergehend zu

Wind 8 kt aus 230°

Sichtweite 10 km oder mehr

aufgebrochene Bewölkung in 3000 ft


Am 26.10. zwischen 17:00 und 20:00 UTC übergehend zu

Wind 6 kt aus 170°

Sichtweite 10 km oder mehr

aufgebrochene Bewölkung in 3000 ft

TAF EDDK 251700Z 2518/2624 24007KT 9999 BKN030 BECMG 2518/2521 17005KT BECMG 2607/2610 23008KT BECMG 2617/2620 17006KT
Impressum